sensor_id;sensor_type;location;lat;lon;timestamp;P1;durP1;ratioP1;P2;durP2;ratioP2
63016;SDS011;50274;45.640;11.756;2022-09-09T00:00:49;6.47;;;2.65;;
63016;SDS011;50274;45.640;11.756;2022-09-09T00:03:43;6.50;;;2.55;;
63016;SDS011;50274;45.640;11.756;2022-09-09T00:06:30;7.60;;;2.85;;
63016;SDS011;50274;45.640;11.756;2022-09-09T00:17:28;5.22;;;3.13;;
63016;SDS011;50274;45.640;11.756;2022-09-09T00:25:40;5.40;;;2.97;;
63016;SDS011;50274;45.640;11.756;2022-09-09T00:28:19;6.10;;;2.58;;
63016;SDS011;50274;45.640;11.756;2022-09-09T00:30:48;6.10;;;3.13;;
63016;SDS011;50274;45.640;11.756;2022-09-09T00:33:15;5.20;;;2.90;;
63016;SDS011;50274;45.640;11.756;2022-09-09T00:35:49;6.50;;;2.93;;
63016;SDS011;50274;45.640;11.756;2022-09-09T00:40:58;6.55;;;2.97;;
63016;SDS011;50274;45.640;11.756;2022-09-09T00:43:36;8.63;;;3.28;;
63016;SDS011;50274;45.640;11.756;2022-09-09T00:57:34;7.95;;;2.78;;
63016;SDS011;50274;45.640;11.756;2022-09-09T01:00:18;7.10;;;3.03;;
63016;SDS011;50274;45.640;11.756;2022-09-09T01:08:18;5.88;;;2.95;;
63016;SDS011;50274;45.640;11.756;2022-09-09T01:10:59;6.20;;;2.90;;
63016;SDS011;50274;45.640;11.756;2022-09-09T01:13:31;10.68;;;3.10;;
63016;SDS011;50274;45.640;11.756;2022-09-09T01:16:00;6.67;;;3.53;;
63016;SDS011;50274;45.640;11.756;2022-09-09T01:18:29;6.68;;;3.13;;
63016;SDS011;50274;45.640;11.756;2022-09-09T01:27:03;6.47;;;3.20;;
63016;SDS011;50274;45.640;11.756;2022-09-09T01:29:31;9.50;;;3.10;;
63016;SDS011;50274;45.640;11.756;2022-09-09T01:31:58;7.22;;;3.15;;
63016;SDS011;50274;45.640;11.756;2022-09-09T01:34:30;9.45;;;3.47;;
63016;SDS011;50274;45.640;11.756;2022-09-09T01:37:07;7.35;;;3.30;;
63016;SDS011;50274;45.640;11.756;2022-09-09T01:39:36;4.90;;;2.83;;
63016;SDS011;50274;45.640;11.756;2022-09-09T01:42:04;6.73;;;3.10;;
63016;SDS011;50274;45.640;11.756;2022-09-09T01:44:32;6.82;;;3.40;;
63016;SDS011;50274;45.640;11.756;2022-09-09T01:47:01;7.85;;;3.50;;
63016;SDS011;50274;45.640;11.756;2022-09-09T01:49:27;7.72;;;3.58;;
63016;SDS011;50274;45.640;11.756;2022-09-09T01:51:54;8.40;;;3.67;;
63016;SDS011;50274;45.640;11.756;2022-09-09T01:54:21;9.63;;;3.90;;
63016;SDS011;50274;45.640;11.756;2022-09-09T01:59:45;5.85;;;3.45;;
63016;SDS011;50274;45.640;11.756;2022-09-09T02:02:28;8.18;;;3.25;;
63016;SDS011;50274;45.640;11.756;2022-09-09T02:08:12;9.43;;;3.53;;
63016;SDS011;50274;45.640;11.756;2022-09-09T02:13:13;11.23;;;3.38;;
63016;SDS011;50274;45.640;11.756;2022-09-09T02:18:07;7.47;;;3.07;;
63016;SDS011;50274;45.640;11.756;2022-09-09T02:20:36;8.63;;;3.22;;
63016;SDS011;50274;45.640;11.756;2022-09-09T02:23:03;7.75;;;2.83;;
63016;SDS011;50274;45.640;11.756;2022-09-09T02:25:32;7.65;;;2.78;;
63016;SDS011;50274;45.640;11.756;2022-09-09T02:28:00;7.43;;;2.87;;
63016;SDS011;50274;45.640;11.756;2022-09-09T02:30:29;7.50;;;3.10;;
63016;SDS011;50274;45.640;11.756;2022-09-09T02:32:57;6.32;;;2.60;;
63016;SDS011;50274;45.640;11.756;2022-09-09T02:35:24;8.48;;;2.83;;
63016;SDS011;50274;45.640;11.756;2022-09-09T02:37:53;8.57;;;2.42;;
63016;SDS011;50274;45.640;11.756;2022-09-09T02:40:22;6.93;;;2.23;;
63016;SDS011;50274;45.640;11.756;2022-09-09T02:42:48;5.78;;;2.50;;
63016;SDS011;50274;45.640;11.756;2022-09-09T02:45:22;6.57;;;2.90;;
63016;SDS011;50274;45.640;11.756;2022-09-09T02:50:35;7.17;;;2.27;;
63016;SDS011;50274;45.640;11.756;2022-09-09T02:53:20;7.88;;;2.40;;
63016;SDS011;50274;45.640;11.756;2022-09-09T02:56:07;9.65;;;2.28;;
63016;SDS011;50274;45.640;11.756;2022-09-09T02:58:38;9.18;;;2.20;;
63016;SDS011;50274;45.640;11.756;2022-09-09T03:01:05;6.28;;;2.35;;
63016;SDS011;50274;45.640;11.756;2022-09-09T03:03:31;7.63;;;2.17;;
63016;SDS011;50274;45.640;11.756;2022-09-09T03:05:57;6.15;;;1.95;;
63016;SDS011;50274;45.640;11.756;2022-09-09T03:08:23;5.38;;;1.77;;
63016;SDS011;50274;45.640;11.756;2022-09-09T03:10:49;9.00;;;2.40;;
63016;SDS011;50274;45.640;11.756;2022-09-09T03:13:15;6.25;;;1.98;;
63016;SDS011;50274;45.640;11.756;2022-09-09T03:15:41;7.78;;;2.05;;
63016;SDS011;50274;45.640;11.756;2022-09-09T03:18:07;5.57;;;1.87;;
63016;SDS011;50274;45.640;11.756;2022-09-09T03:20:33;7.75;;;1.92;;
63016;SDS011;50274;45.640;11.756;2022-09-09T03:22:59;4.78;;;1.58;;
63016;SDS011;50274;45.640;11.756;2022-09-09T03:25:25;7.13;;;2.03;;
63016;SDS011;50274;45.640;11.756;2022-09-09T03:27:52;8.95;;;1.70;;
63016;SDS011;50274;45.640;11.756;2022-09-09T03:30:23;5.63;;;1.77;;
63016;SDS011;50274;45.640;11.756;2022-09-09T03:32:50;6.68;;;2.53;;
63016;SDS011;50274;45.640;11.756;2022-09-09T03:35:16;6.68;;;2.38;;
63016;SDS011;50274;45.640;11.756;2022-09-09T03:37:42;5.13;;;1.80;;
63016;SDS011;50274;45.640;11.756;2022-09-09T03:40:08;5.93;;;1.98;;
63016;SDS011;50274;45.640;11.756;2022-09-09T03:42:37;7.63;;;2.00;;
63016;SDS011;50274;45.640;11.756;2022-09-09T03:45:04;7.15;;;2.00;;
63016;SDS011;50274;45.640;11.756;2022-09-09T03:47:31;8.77;;;1.97;;
63016;SDS011;50274;45.640;11.756;2022-09-09T03:49:58;6.18;;;2.08;;
63016;SDS011;50274;45.640;11.756;2022-09-09T03:52:23;5.40;;;2.00;;
63016;SDS011;50274;45.640;11.756;2022-09-09T03:54:51;7.70;;;2.00;;
63016;SDS011;50274;45.640;11.756;2022-09-09T03:57:18;5.13;;;1.90;;
63016;SDS011;50274;45.640;11.756;2022-09-09T03:59:44;6.30;;;2.00;;
63016;SDS011;50274;45.640;11.756;2022-09-09T04:02:10;7.13;;;2.47;;
63016;SDS011;50274;45.640;11.756;2022-09-09T04:04:36;8.37;;;2.10;;
63016;SDS011;50274;45.640;11.756;2022-09-09T04:07:01;6.97;;;2.50;;
63016;SDS011;50274;45.640;11.756;2022-09-09T04:09:27;9.25;;;2.75;;
63016;SDS011;50274;45.640;11.756;2022-09-09T04:11:53;4.93;;;2.00;;
63016;SDS011;50274;45.640;11.756;2022-09-09T04:14:20;5.15;;;1.85;;
63016;SDS011;50274;45.640;11.756;2022-09-09T04:16:46;7.07;;;1.95;;
63016;SDS011;50274;45.640;11.756;2022-09-09T04:19:12;5.65;;;1.98;;
63016;SDS011;50274;45.640;11.756;2022-09-09T04:21:39;6.43;;;1.92;;
63016;SDS011;50274;45.640;11.756;2022-09-09T04:24:08;8.03;;;2.13;;
63016;SDS011;50274;45.640;11.756;2022-09-09T04:26:34;5.82;;;1.70;;
63016;SDS011;50274;45.640;11.756;2022-09-09T04:29:02;6.38;;;2.00;;
63016;SDS011;50274;45.640;11.756;2022-09-09T04:31:28;5.38;;;1.70;;
63016;SDS011;50274;45.640;11.756;2022-09-09T04:33:54;7.57;;;2.17;;
63016;SDS011;50274;45.640;11.756;2022-09-09T04:36:20;5.77;;;1.83;;
63016;SDS011;50274;45.640;11.756;2022-09-09T04:38:46;5.07;;;1.70;;
63016;SDS011;50274;45.640;11.756;2022-09-09T04:41:14;6.65;;;2.22;;
63016;SDS011;50274;45.640;11.756;2022-09-09T04:43:41;7.35;;;2.10;;
63016;SDS011;50274;45.640;11.756;2022-09-09T04:46:07;6.45;;;2.00;;
63016;SDS011;50274;45.640;11.756;2022-09-09T04:48:33;7.03;;;2.10;;
63016;SDS011;50274;45.640;11.756;2022-09-09T04:51:01;6.88;;;2.17;;
63016;SDS011;50274;45.640;11.756;2022-09-09T04:53:29;7.93;;;2.10;;
63016;SDS011;50274;45.640;11.756;2022-09-09T04:56:02;5.43;;;2.20;;
63016;SDS011;50274;45.640;11.756;2022-09-09T04:58:36;5.63;;;2.03;;
63016;SDS011;50274;45.640;11.756;2022-09-09T05:01:07;5.18;;;2.05;;
63016;SDS011;50274;45.640;11.756;2022-09-09T05:03:40;9.73;;;2.88;;
63016;SDS011;50274;45.640;11.756;2022-09-09T05:06:08;6.10;;;2.38;;
63016;SDS011;50274;45.640;11.756;2022-09-09T05:08:36;6.68;;;2.75;;
63016;SDS011;50274;45.640;11.756;2022-09-09T05:11:03;8.43;;;2.70;;
63016;SDS011;50274;45.640;11.756;2022-09-09T05:13:41;5.07;;;2.22;;
63016;SDS011;50274;45.640;11.756;2022-09-09T05:16:07;6.85;;;2.10;;
63016;SDS011;50274;45.640;11.756;2022-09-09T05:18:36;4.82;;;2.10;;
63016;SDS011;50274;45.640;11.756;2022-09-09T05:21:05;5.10;;;2.30;;
63016;SDS011;50274;45.640;11.756;2022-09-09T05:23:33;6.40;;;2.00;;
63016;SDS011;50274;45.640;11.756;2022-09-09T05:25:59;10.13;;;2.72;;
63016;SDS011;50274;45.640;11.756;2022-09-09T05:28:25;6.65;;;2.33;;
63016;SDS011;50274;45.640;11.756;2022-09-09T05:30:55;5.70;;;2.30;;
63016;SDS011;50274;45.640;11.756;2022-09-09T05:33:22;6.45;;;2.30;;
63016;SDS011;50274;45.640;11.756;2022-09-09T05:35:54;5.20;;;2.30;;
63016;SDS011;50274;45.640;11.756;2022-09-09T05:38:27;5.65;;;2.38;;
63016;SDS011;50274;45.640;11.756;2022-09-09T05:40:54;7.20;;;2.67;;
63016;SDS011;50274;45.640;11.756;2022-09-09T05:43:22;6.82;;;2.92;;
63016;SDS011;50274;45.640;11.756;2022-09-09T05:45:58;7.65;;;2.70;;
63016;SDS011;50274;45.640;11.756;2022-09-09T05:48:34;10.00;;;2.37;;
63016;SDS011;50274;45.640;11.756;2022-09-09T05:51:02;6.85;;;2.60;;
63016;SDS011;50274;45.640;11.756;2022-09-09T05:53:29;5.97;;;2.72;;
63016;SDS011;50274;45.640;11.756;2022-09-09T05:56:11;5.40;;;2.72;;
63016;SDS011;50274;45.640;11.756;2022-09-09T05:58:42;9.70;;;3.00;;
63016;SDS011;50274;45.640;11.756;2022-09-09T06:01:13;6.90;;;2.50;;
63016;SDS011;50274;45.640;11.756;2022-09-09T06:03:42;6.47;;;2.17;;
63016;SDS011;50274;45.640;11.756;2022-09-09T06:06:10;10.75;;;3.00;;
63016;SDS011;50274;45.640;11.756;2022-09-09T06:08:39;10.75;;;2.90;;
63016;SDS011;50274;45.640;11.756;2022-09-09T06:11:07;7.20;;;2.80;;
63016;SDS011;50274;45.640;11.756;2022-09-09T06:13:38;8.10;;;3.00;;
63016;SDS011;50274;45.640;11.756;2022-09-09T06:16:11;9.63;;;2.72;;
63016;SDS011;50274;45.640;11.756;2022-09-09T06:18:38;9.20;;;3.03;;
63016;SDS011;50274;45.640;11.756;2022-09-09T06:21:08;8.05;;;2.78;;
63016;SDS011;50274;45.640;11.756;2022-09-09T06:23:36;7.25;;;2.80;;
63016;SDS011;50274;45.640;11.756;2022-09-09T06:26:13;7.13;;;2.37;;
63016;SDS011;50274;45.640;11.756;2022-09-09T06:28:50;6.38;;;2.40;;
63016;SDS011;50274;45.640;11.756;2022-09-09T06:31:18;8.57;;;2.60;;
63016;SDS011;50274;45.640;11.756;2022-09-09T06:33:49;7.07;;;2.60;;
63016;SDS011;50274;45.640;11.756;2022-09-09T06:36:20;7.55;;;2.85;;
63016;SDS011;50274;45.640;11.756;2022-09-09T06:38:48;5.47;;;2.07;;
63016;SDS011;50274;45.640;11.756;2022-09-09T06:41:15;7.10;;;2.50;;
63016;SDS011;50274;45.640;11.756;2022-09-09T06:43:43;12.45;;;2.30;;
63016;SDS011;50274;45.640;11.756;2022-09-09T06:46:19;6.88;;;2.78;;
63016;SDS011;50274;45.640;11.756;2022-09-09T06:48:47;7.95;;;2.50;;
63016;SDS011;50274;45.640;11.756;2022-09-09T06:51:17;5.97;;;2.67;;
63016;SDS011;50274;45.640;11.756;2022-09-09T06:53:46;6.30;;;2.17;;
63016;SDS011;50274;45.640;11.756;2022-09-09T06:59:14;8.10;;;2.40;;
63016;SDS011;50274;45.640;11.756;2022-09-09T07:01:41;9.07;;;2.17;;
63016;SDS011;50274;45.640;11.756;2022-09-09T07:04:11;7.50;;;2.53;;
63016;SDS011;50274;45.640;11.756;2022-09-09T07:06:42;7.57;;;2.50;;
63016;SDS011;50274;45.640;11.756;2022-09-09T07:09:10;7.72;;;2.88;;
63016;SDS011;50274;45.640;11.756;2022-09-09T07:11:41;11.40;;;2.67;;
63016;SDS011;50274;45.640;11.756;2022-09-09T07:14:08;8.05;;;2.78;;
63016;SDS011;50274;45.640;11.756;2022-09-09T07:16:37;10.07;;;2.60;;
63016;SDS011;50274;45.640;11.756;2022-09-09T07:19:04;7.15;;;2.58;;
63016;SDS011;50274;45.640;11.756;2022-09-09T07:21:30;7.30;;;2.72;;
63016;SDS011;50274;45.640;11.756;2022-09-09T07:23:57;6.90;;;2.30;;
63016;SDS011;50274;45.640;11.756;2022-09-09T07:26:25;5.38;;;2.08;;
63016;SDS011;50274;45.640;11.756;2022-09-09T07:28:52;8.97;;;2.50;;
63016;SDS011;50274;45.640;11.756;2022-09-09T07:31:21;8.35;;;2.60;;
63016;SDS011;50274;45.640;11.756;2022-09-09T07:33:52;8.15;;;2.33;;
63016;SDS011;50274;45.640;11.756;2022-09-09T07:38:49;6.97;;;2.25;;
63016;SDS011;50274;45.640;11.756;2022-09-09T07:41:20;6.60;;;2.50;;
63016;SDS011;50274;45.640;11.756;2022-09-09T07:43:53;6.35;;;1.73;;
63016;SDS011;50274;45.640;11.756;2022-09-09T07:46:20;8.27;;;2.58;;
63016;SDS011;50274;45.640;11.756;2022-09-09T07:48:48;6.60;;;2.55;;
63016;SDS011;50274;45.640;11.756;2022-09-09T07:51:16;8.73;;;2.65;;
63016;SDS011;50274;45.640;11.756;2022-09-09T07:54:04;5.83;;;2.10;;
63016;SDS011;50274;45.640;11.756;2022-09-09T07:56:32;8.43;;;2.63;;
63016;SDS011;50274;45.640;11.756;2022-09-09T07:58:59;7.78;;;2.10;;
63016;SDS011;50274;45.640;11.756;2022-09-09T08:01:27;6.38;;;2.30;;
63016;SDS011;50274;45.640;11.756;2022-09-09T08:03:59;8.90;;;2.15;;
63016;SDS011;50274;45.640;11.756;2022-09-09T08:06:29;7.17;;;2.73;;
63016;SDS011;50274;45.640;11.756;2022-09-09T08:09:09;5.53;;;1.95;;
63016;SDS011;50274;45.640;11.756;2022-09-09T08:11:36;5.32;;;2.10;;
63016;SDS011;50274;45.640;11.756;2022-09-09T08:14:04;6.80;;;1.90;;
63016;SDS011;50274;45.640;11.756;2022-09-09T08:16:31;6.07;;;2.05;;
63016;SDS011;50274;45.640;11.756;2022-09-09T08:18:59;7.00;;;2.17;;
63016;SDS011;50274;45.640;11.756;2022-09-09T08:21:26;10.40;;;2.28;;
63016;SDS011;50274;45.640;11.756;2022-09-09T08:23:55;5.88;;;2.60;;
63016;SDS011;50274;45.640;11.756;2022-09-09T08:26:22;9.52;;;2.15;;
63016;SDS011;50274;45.640;11.756;2022-09-09T08:28:50;7.13;;;2.30;;
63016;SDS011;50274;45.640;11.756;2022-09-09T08:31:18;8.40;;;2.10;;
63016;SDS011;50274;45.640;11.756;2022-09-09T08:33:46;6.93;;;2.45;;
63016;SDS011;50274;45.640;11.756;2022-09-09T08:36:13;5.90;;;2.38;;
63016;SDS011;50274;45.640;11.756;2022-09-09T08:38:41;8.07;;;2.53;;
63016;SDS011;50274;45.640;11.756;2022-09-09T08:41:12;7.60;;;1.95;;
63016;SDS011;50274;45.640;11.756;2022-09-09T08:43:51;10.07;;;2.17;;
63016;SDS011;50274;45.640;11.756;2022-09-09T08:46:44;6.05;;;1.90;;
63016;SDS011;50274;45.640;11.756;2022-09-09T08:49:35;9.02;;;2.25;;
63016;SDS011;50274;45.640;11.756;2022-09-09T08:52:18;6.43;;;2.22;;
63016;SDS011;50274;45.640;11.756;2022-09-09T08:54:52;7.93;;;2.13;;
63016;SDS011;50274;45.640;11.756;2022-09-09T08:57:28;6.87;;;2.00;;
63016;SDS011;50274;45.640;11.756;2022-09-09T08:59:56;7.90;;;1.95;;
63016;SDS011;50274;45.640;11.756;2022-09-09T09:10:49;6.80;;;1.70;;
63016;SDS011;50274;45.640;11.756;2022-09-09T09:13:20;6.85;;;1.95;;
63016;SDS011;50274;45.640;11.756;2022-09-09T09:15:59;8.55;;;2.20;;
63016;SDS011;50274;45.640;11.756;2022-09-09T09:18:31;7.70;;;2.03;;
63016;SDS011;50274;45.640;11.756;2022-09-09T09:21:16;6.88;;;1.90;;
63016;SDS011;50274;45.640;11.756;2022-09-09T09:23:55;8.00;;;2.33;;
63016;SDS011;50274;45.640;11.756;2022-09-09T09:26:25;7.22;;;1.90;;
63016;SDS011;50274;45.640;11.756;2022-09-09T09:28:55;7.95;;;2.10;;
63016;SDS011;50274;45.640;11.756;2022-09-09T09:31:23;5.75;;;1.60;;
63016;SDS011;50274;45.640;11.756;2022-09-09T09:33:55;5.38;;;1.83;;
63016;SDS011;50274;45.640;11.756;2022-09-09T09:36:42;6.70;;;2.03;;
63016;SDS011;50274;45.640;11.756;2022-09-09T09:39:26;5.88;;;2.00;;
63016;SDS011;50274;45.640;11.756;2022-09-09T09:42:10;3.90;;;1.48;;
63016;SDS011;50274;45.640;11.756;2022-09-09T09:44:40;4.97;;;1.48;;
63016;SDS011;50274;45.640;11.756;2022-09-09T09:47:15;5.53;;;1.40;;
63016;SDS011;50274;45.640;11.756;2022-09-09T09:49:54;7.60;;;1.70;;
63016;SDS011;50274;45.640;11.756;2022-09-09T09:52:31;5.20;;;1.58;;
63016;SDS011;50274;45.640;11.756;2022-09-09T09:54:59;5.28;;;1.58;;
63016;SDS011;50274;45.640;11.756;2022-09-09T09:57:30;5.43;;;1.52;;
63016;SDS011;50274;45.640;11.756;2022-09-09T10:00:16;4.13;;;1.52;;
63016;SDS011;50274;45.640;11.756;2022-09-09T10:02:45;5.03;;;1.60;;
63016;SDS011;50274;45.640;11.756;2022-09-09T10:05:14;5.18;;;1.23;;
63016;SDS011;50274;45.640;11.756;2022-09-09T10:10:42;4.13;;;1.00;;
63016;SDS011;50274;45.640;11.756;2022-09-09T10:21:57;4.93;;;1.17;;
63016;SDS011;50274;45.640;11.756;2022-09-09T10:27:47;7.45;;;1.70;;
63016;SDS011;50274;45.640;11.756;2022-09-09T10:38:47;5.47;;;1.20;;
63016;SDS011;50274;45.640;11.756;2022-09-09T10:44:10;5.93;;;1.43;;
63016;SDS011;50274;45.640;11.756;2022-09-09T10:46:57;5.03;;;1.20;;
63016;SDS011;50274;45.640;11.756;2022-09-09T10:55:29;5.50;;;1.40;;
63016;SDS011;50274;45.640;11.756;2022-09-09T10:58:13;5.63;;;1.03;;
63016;SDS011;50274;45.640;11.756;2022-09-09T11:00:47;4.70;;;1.50;;
63016;SDS011;50274;45.640;11.756;2022-09-09T11:03:26;5.20;;;1.52;;
63016;SDS011;50274;45.640;11.756;2022-09-09T11:06:05;4.60;;;1.13;;
63016;SDS011;50274;45.640;11.756;2022-09-09T11:08:35;6.18;;;1.25;;
63016;SDS011;50274;45.640;11.756;2022-09-09T11:14:09;5.35;;;1.23;;
63016;SDS011;50274;45.640;11.756;2022-09-09T11:17:02;5.97;;;1.42;;
63016;SDS011;50274;45.640;11.756;2022-09-09T11:19:40;6.05;;;1.70;;
63016;SDS011;50274;45.640;11.756;2022-09-09T11:30:25;5.55;;;1.48;;
63016;SDS011;50274;45.640;11.756;2022-09-09T11:33:16;5.60;;;1.60;;
63016;SDS011;50274;45.640;11.756;2022-09-09T11:39:24;6.57;;;1.60;;
63016;SDS011;50274;45.640;11.756;2022-09-09T11:41:49;7.35;;;1.75;;
63016;SDS011;50274;45.640;11.756;2022-09-09T11:44:29;6.90;;;1.60;;
63016;SDS011;50274;45.640;11.756;2022-09-09T11:46:56;6.38;;;1.83;;
63016;SDS011;50274;45.640;11.756;2022-09-09T11:49:39;6.15;;;2.03;;
63016;SDS011;50274;45.640;11.756;2022-09-09T11:52:19;5.77;;;2.20;;
63016;SDS011;50274;45.640;11.756;2022-09-09T11:54:47;5.90;;;1.90;;
63016;SDS011;50274;45.640;11.756;2022-09-09T12:00:33;9.13;;;1.83;;
63016;SDS011;50274;45.640;11.756;2022-09-09T12:05:57;6.03;;;1.93;;
63016;SDS011;50274;45.640;11.756;2022-09-09T12:08:26;7.50;;;2.10;;
63016;SDS011;50274;45.640;11.756;2022-09-09T12:10:55;7.18;;;2.15;;
63016;SDS011;50274;45.640;11.756;2022-09-09T12:13:23;8.00;;;2.22;;
63016;SDS011;50274;45.640;11.756;2022-09-09T12:20:57;7.07;;;1.80;;
63016;SDS011;50274;45.640;11.756;2022-09-09T12:23:49;5.80;;;2.10;;
63016;SDS011;50274;45.640;11.756;2022-09-09T12:31:56;7.63;;;1.60;;
63016;SDS011;50274;45.640;11.756;2022-09-09T12:37:05;9.68;;;1.40;;
63016;SDS011;50274;45.640;11.756;2022-09-09T12:39:33;7.53;;;1.48;;
63016;SDS011;50274;45.640;11.756;2022-09-09T12:42:04;9.27;;;1.27;;
63016;SDS011;50274;45.640;11.756;2022-09-09T12:44:30;5.32;;;1.00;;
63016;SDS011;50274;45.640;11.756;2022-09-09T12:46:58;3.50;;;0.90;;
63016;SDS011;50274;45.640;11.756;2022-09-09T12:49:29;4.03;;;0.68;;
63016;SDS011;50274;45.640;11.756;2022-09-09T12:52:08;9.85;;;1.20;;
63016;SDS011;50274;45.640;11.756;2022-09-09T12:54:43;8.90;;;1.10;;
63016;SDS011;50274;45.640;11.756;2022-09-09T12:57:13;4.07;;;0.80;;
63016;SDS011;50274;45.640;11.756;2022-09-09T12:59:41;6.78;;;0.60;;
63016;SDS011;50274;45.640;11.756;2022-09-09T13:05:14;2.67;;;0.40;;
63016;SDS011;50274;45.640;11.756;2022-09-09T13:07:42;2.80;;;0.60;;
63016;SDS011;50274;45.640;11.756;2022-09-09T13:10:12;3.67;;;0.70;;
63016;SDS011;50274;45.640;11.756;2022-09-09T13:12:40;3.17;;;0.70;;
63016;SDS011;50274;45.640;11.756;2022-09-09T13:15:23;2.72;;;0.50;;
63016;SDS011;50274;45.640;11.756;2022-09-09T13:17:56;3.60;;;0.50;;
63016;SDS011;50274;45.640;11.756;2022-09-09T13:20:25;3.37;;;0.50;;
63016;SDS011;50274;45.640;11.756;2022-09-09T13:22:53;3.75;;;0.40;;
63016;SDS011;50274;45.640;11.756;2022-09-09T13:25:21;4.15;;;0.45;;
63016;SDS011;50274;45.640;11.756;2022-09-09T13:30:30;4.57;;;0.40;;
63016;SDS011;50274;45.640;11.756;2022-09-09T13:33:06;3.40;;;0.43;;
63016;SDS011;50274;45.640;11.756;2022-09-09T13:35:53;4.72;;;0.45;;
63016;SDS011;50274;45.640;11.756;2022-09-09T13:38:24;1.83;;;0.35;;
63016;SDS011;50274;45.640;11.756;2022-09-09T13:40:56;2.08;;;0.30;;
63016;SDS011;50274;45.640;11.756;2022-09-09T13:43:24;2.47;;;0.43;;
63016;SDS011;50274;45.640;11.756;2022-09-09T13:45:54;3.10;;;0.50;;
63016;SDS011;50274;45.640;11.756;2022-09-09T13:48:22;3.05;;;0.40;;
63016;SDS011;50274;45.640;11.756;2022-09-09T13:50:58;1.98;;;0.30;;
63016;SDS011;50274;45.640;11.756;2022-09-09T13:53:25;2.08;;;0.30;;
63016;SDS011;50274;45.640;11.756;2022-09-09T13:55:52;2.30;;;0.50;;
63016;SDS011;50274;45.640;11.756;2022-09-09T13:58:18;1.37;;;0.30;;
63016;SDS011;50274;45.640;11.756;2022-09-09T14:00:45;3.05;;;0.35;;
63016;SDS011;50274;45.640;11.756;2022-09-09T14:03:11;2.10;;;0.47;;
63016;SDS011;50274;45.640;11.756;2022-09-09T14:05:38;2.80;;;0.35;;
63016;SDS011;50274;45.640;11.756;2022-09-09T14:08:05;2.38;;;0.50;;
63016;SDS011;50274;45.640;11.756;2022-09-09T14:10:35;5.13;;;0.50;;
63016;SDS011;50274;45.640;11.756;2022-09-09T14:13:03;4.05;;;0.55;;
63016;SDS011;50274;45.640;11.756;2022-09-09T14:15:28;3.22;;;0.50;;
63016;SDS011;50274;45.640;11.756;2022-09-09T14:17:54;2.78;;;0.32;;
63016;SDS011;50274;45.640;11.756;2022-09-09T14:20:20;2.93;;;0.60;;
63016;SDS011;50274;45.640;11.756;2022-09-09T14:22:46;3.80;;;0.60;;
63016;SDS011;50274;45.640;11.756;2022-09-09T14:25:12;6.18;;;0.60;;
63016;SDS011;50274;45.640;11.756;2022-09-09T14:27:39;3.33;;;0.60;;
63016;SDS011;50274;45.640;11.756;2022-09-09T14:30:05;3.23;;;0.60;;
63016;SDS011;50274;45.640;11.756;2022-09-09T14:32:32;4.93;;;0.70;;
63016;SDS011;50274;45.640;11.756;2022-09-09T14:34:58;5.25;;;0.77;;
63016;SDS011;50274;45.640;11.756;2022-09-09T14:37:24;2.53;;;0.60;;
63016;SDS011;50274;45.640;11.756;2022-09-09T14:39:50;4.70;;;0.70;;
63016;SDS011;50274;45.640;11.756;2022-09-09T14:42:16;5.13;;;0.97;;
63016;SDS011;50274;45.640;11.756;2022-09-09T14:44:42;5.00;;;0.70;;
63016;SDS011;50274;45.640;11.756;2022-09-09T14:47:08;4.50;;;0.90;;
63016;SDS011;50274;45.640;11.756;2022-09-09T14:49:34;4.10;;;0.70;;
63016;SDS011;50274;45.640;11.756;2022-09-09T14:52:01;3.45;;;0.65;;
63016;SDS011;50274;45.640;11.756;2022-09-09T14:54:27;2.78;;;0.70;;
63016;SDS011;50274;45.640;11.756;2022-09-09T14:56:54;4.00;;;0.77;;
63016;SDS011;50274;45.640;11.756;2022-09-09T14:59:19;4.43;;;0.97;;
63016;SDS011;50274;45.640;11.756;2022-09-09T15:01:46;3.03;;;0.70;;
63016;SDS011;50274;45.640;11.756;2022-09-09T15:04:12;3.75;;;0.93;;
63016;SDS011;50274;45.640;11.756;2022-09-09T15:06:41;4.88;;;0.75;;
63016;SDS011;50274;45.640;11.756;2022-09-09T15:09:12;3.50;;;0.80;;
63016;SDS011;50274;45.640;11.756;2022-09-09T15:11:37;4.38;;;0.80;;
63016;SDS011;50274;45.640;11.756;2022-09-09T15:14:04;3.40;;;0.80;;
63016;SDS011;50274;45.640;11.756;2022-09-09T15:16:31;4.40;;;0.90;;
63016;SDS011;50274;45.640;11.756;2022-09-09T15:18:58;3.20;;;0.80;;
63016;SDS011;50274;45.640;11.756;2022-09-09T15:21:25;3.47;;;0.80;;
63016;SDS011;50274;45.640;11.756;2022-09-09T15:23:53;3.63;;;0.60;;
63016;SDS011;50274;45.640;11.756;2022-09-09T15:26:20;4.18;;;0.80;;
63016;SDS011;50274;45.640;11.756;2022-09-09T15:28:46;3.45;;;0.68;;
63016;SDS011;50274;45.640;11.756;2022-09-09T15:31:18;2.95;;;0.70;;
63016;SDS011;50274;45.640;11.756;2022-09-09T15:33:46;4.43;;;0.60;;
63016;SDS011;50274;45.640;11.756;2022-09-09T15:36:30;3.50;;;0.75;;
63016;SDS011;50274;45.640;11.756;2022-09-09T15:38:57;3.42;;;0.70;;
63016;SDS011;50274;45.640;11.756;2022-09-09T15:41:26;3.20;;;0.57;;
63016;SDS011;50274;45.640;11.756;2022-09-09T15:43:53;4.47;;;0.90;;
63016;SDS011;50274;45.640;11.756;2022-09-09T15:48:51;3.80;;;0.82;;
63016;SDS011;50274;45.640;11.756;2022-09-09T15:51:17;3.65;;;0.70;;
63016;SDS011;50274;45.640;11.756;2022-09-09T15:53:43;6.30;;;0.88;;
63016;SDS011;50274;45.640;11.756;2022-09-09T15:56:09;4.30;;;0.80;;
63016;SDS011;50274;45.640;11.756;2022-09-09T15:58:36;4.97;;;0.70;;
63016;SDS011;50274;45.640;11.756;2022-09-09T16:01:06;4.40;;;0.60;;
63016;SDS011;50274;45.640;11.756;2022-09-09T16:03:36;2.60;;;0.70;;
63016;SDS011;50274;45.640;11.756;2022-09-09T16:06:04;3.63;;;0.70;;
63016;SDS011;50274;45.640;11.756;2022-09-09T16:08:34;3.07;;;0.60;;
63016;SDS011;50274;45.640;11.756;2022-09-09T16:11:07;3.03;;;0.80;;
63016;SDS011;50274;45.640;11.756;2022-09-09T16:13:39;2.95;;;0.70;;
63016;SDS011;50274;45.640;11.756;2022-09-09T16:16:05;3.22;;;0.80;;
63016;SDS011;50274;45.640;11.756;2022-09-09T16:18:36;4.93;;;0.73;;
63016;SDS011;50274;45.640;11.756;2022-09-09T16:23:47;4.22;;;1.00;;
63016;SDS011;50274;45.640;11.756;2022-09-09T16:26:15;4.57;;;1.00;;
63016;SDS011;50274;45.640;11.756;2022-09-09T16:28:41;4.03;;;1.00;;
63016;SDS011;50274;45.640;11.756;2022-09-09T16:31:19;3.10;;;0.88;;
63016;SDS011;50274;45.640;11.756;2022-09-09T16:33:46;3.57;;;0.80;;
63016;SDS011;50274;45.640;11.756;2022-09-09T16:36:14;3.05;;;0.70;;
63016;SDS011;50274;45.640;11.756;2022-09-09T16:38:45;3.65;;;0.93;;
63016;SDS011;50274;45.640;11.756;2022-09-09T16:41:12;4.18;;;0.90;;
63016;SDS011;50274;45.640;11.756;2022-09-09T16:43:39;3.67;;;0.90;;
63016;SDS011;50274;45.640;11.756;2022-09-09T16:46:13;3.30;;;0.70;;
63016;SDS011;50274;45.640;11.756;2022-09-09T16:48:44;3.47;;;0.95;;
63016;SDS011;50274;45.640;11.756;2022-09-09T16:51:13;3.80;;;0.80;;
63016;SDS011;50274;45.640;11.756;2022-09-09T16:53:41;4.78;;;0.90;;
63016;SDS011;50274;45.640;11.756;2022-09-09T16:56:08;3.42;;;0.90;;
63016;SDS011;50274;45.640;11.756;2022-09-09T16:58:36;4.27;;;1.10;;
63016;SDS011;50274;45.640;11.756;2022-09-09T17:01:02;5.00;;;1.17;;
63016;SDS011;50274;45.640;11.756;2022-09-09T17:03:29;4.55;;;1.20;;
63016;SDS011;50274;45.640;11.756;2022-09-09T17:05:56;3.70;;;1.40;;
63016;SDS011;50274;45.640;11.756;2022-09-09T17:08:23;5.10;;;1.20;;
63016;SDS011;50274;45.640;11.756;2022-09-09T17:10:49;4.68;;;1.50;;
63016;SDS011;50274;45.640;11.756;2022-09-09T17:13:15;5.22;;;1.40;;
63016;SDS011;50274;45.640;11.756;2022-09-09T17:15:44;4.22;;;1.08;;